»·PEaware :: BADGR24 KEND-KEND

BADGR24 :: KEND-KEND

FLIGHT INFORMATION

Flight Status: Arrived
Operator: Unknown
More flights by this operator :: More flights under this callsign
Pilot: Britt W. (22230)
Aircraft: BEECH AIRCRAFT T-6A TEXAN
(TEX2)
More flights by this aircraft type
Origin: KEND Vance AFB
United States
Destination: KEND Vance AFB
United States
More flights between these airports :: More routes between these airports
Route: +PNC F22
File this flight plan on PilotEdge
Remarks:
Altitude:
(Current/Filed)
0ft
Speed:
(Current/Filed)
0kts
Departed: 17-Sep-20 09:49 AM
Arrived: 17-Sep-20 10:34 AM
Distance/Time
Traveled:
0nm/0:45
Distance/Time
To Go:
Arrived

Flight Plot

Page will automatically refresh every two minutes.

Flight plan parsing failed; only flown route is shown


Map Options




Map Legend


Flown Route
Filed Route
Departure Airport
Arrival Airport
Navaid (VOR, NDB)
Fix

Horizontal Profiles

Position Reports

Time Latitude Longitude Heading Altitude Ground
Speed
17-Sep-20 09:21 36.346951 -97.910006 207 1279ft 0kts
17-Sep-20 09:22 36.346951 -97.910006 207 1279ft 0kts
17-Sep-20 09:23 36.346951 -97.910006 207 1279ft 0kts
17-Sep-20 09:24 36.346951 -97.910006 207 1279ft 0kts
17-Sep-20 09:25 36.346951 -97.910006 207 1279ft 0kts
17-Sep-20 09:26 36.346951 -97.910006 207 1279ft 0kts
17-Sep-20 09:27 36.346951 -97.910006 207 1279ft 0kts
17-Sep-20 09:34 36.346971 -97.909990 216 1279ft 0kts
17-Sep-20 09:40 36.333589 -97.910175 270 1291ft 0kts
17-Sep-20 09:41 36.333589 -97.910175 270 1291ft 0kts
17-Sep-20 09:42 36.333589 -97.910175 270 1291ft 0kts
17-Sep-20 09:43 36.333589 -97.910175 270 1291ft 0kts
17-Sep-20 09:44 36.333589 -97.910175 270 1291ft 0kts
17-Sep-20 09:45 36.333589 -97.910175 270 1291ft 0kts
17-Sep-20 09:46 36.333589 -97.910175 270 1291ft 0kts
17-Sep-20 09:47 36.333589 -97.910175 270 1291ft 0kts
17-Sep-20 09:48 36.341138 -97.911047 359 1413ft 113kts
17-Sep-20 09:49 36.391784 -97.910955 4 3090ft 202kts
17-Sep-20 09:50 36.449816 -97.909087 20 4995ft 208kts
17-Sep-20 09:51 36.449329 -97.845637 91 5017ft 201kts
17-Sep-20 09:52 36.464641 -97.778834 69 5498ft 190kts
17-Sep-20 09:53 36.483352 -97.711352 67 5577ft 207kts
17-Sep-20 09:54 36.515931 -97.648589 54 5539ft 211kts
17-Sep-20 09:55 36.550505 -97.586627 54 5544ft 212kts
17-Sep-20 09:56 36.586794 -97.521366 49 5531ft 235kts
17-Sep-20 09:57 36.622514 -97.449846 57 5545ft 242kts
17-Sep-20 09:58 36.659075 -97.377073 56 5555ft 241kts
17-Sep-20 09:59 36.693035 -97.301517 60 5508ft 242kts
17-Sep-20 10:00 36.723775 -97.229678 66 3807ft 218kts
17-Sep-20 10:01 36.736220 -97.156792 90 2588ft 205kts
17-Sep-20 10:02 36.760835 -97.105093 94 2046ft 196kts
17-Sep-20 10:03 36.709564 -97.099763 194 1650ft 169kts
17-Sep-20 10:04 36.734396 -97.119262 1 2614ft 153kts
17-Sep-20 10:05 36.748415 -97.099166 184 1538ft 183kts
17-Sep-20 10:06 36.711554 -97.111583 266 1883ft 149kts
17-Sep-20 10:07 36.748072 -97.121875 358 2467ft 113kts
17-Sep-20 10:08 36.737942 -97.099486 182 1014ft 133kts
17-Sep-20 10:09 36.696855 -97.107128 214 2412ft 192kts
17-Sep-20 10:10 36.653019 -97.157189 216 4545ft 230kts
17-Sep-20 10:11 36.601573 -97.216281 223 4629ft 260kts
17-Sep-20 10:12 36.542965 -97.269202 185 4383ft 258kts
17-Sep-20 10:13 36.472055 -97.277551 179 3462ft 260kts
17-Sep-20 10:14 36.404124 -97.277374 178 1692ft 219kts
17-Sep-20 10:15 36.369477 -97.257190 19 2292ft 142kts
17-Sep-20 10:16 36.399754 -97.274958 237 1943ft 155kts
17-Sep-20 10:17 36.360093 -97.268937 92 2432ft 145kts
17-Sep-20 10:18 36.392279 -97.257098 3 2563ft 142kts
17-Sep-20 10:19 36.391616 -97.277224 180 988ft 141kts
17-Sep-20 10:20 36.353458 -97.284119 259 2895ft 178kts
17-Sep-20 10:21 36.354492 -97.347283 271 6445ft 191kts
17-Sep-20 10:22 36.358353 -97.424541 280 6335ft 246kts
17-Sep-20 10:23 36.361725 -97.511231 270 6076ft 249kts
17-Sep-20 10:24 36.359866 -97.601412 272 6056ft 259kts
17-Sep-20 10:25 36.367070 -97.692869 277 6044ft 260kts
17-Sep-20 10:26 36.374387 -97.784507 273 6174ft 254kts
17-Sep-20 10:27 36.307818 -97.814956 197 5017ft 256kts
17-Sep-20 10:28 36.235236 -97.831052 189 3854ft 274kts
17-Sep-20 10:29 36.204703 -97.896174 298 2253ft 222kts
17-Sep-20 10:30 36.253539 -97.909240 3 1799ft 158kts
17-Sep-20 10:31 36.290723 -97.910906 354 1756ft 111kts
17-Sep-20 10:32 36.322009 -97.911085 1 1608ft 107kts
17-Sep-20 10:33 36.345799 -97.910917 3 1280ft 29kts

Navigation Log

Ident Type
Flight plan parsing failed, navigation log unavailable